Time;durP1;ratioP1;P1;durP2;ratioP2;P2;SDS_P1;SDS_P2;PMS_P1;PMS_P2;Temp;Humidity;BMP_temperature;BMP_pressure;BME280_temperature;BME280_humidity;BME280_pressure;Samples;Min_cycle;Max_cycle;Signal;HPM_P1;HPM_P2
2021/04/30 00:01:16;;;;;;;36.90;20.88;;;6.90;99.90;;;;;;5090760;28;20027;-79
2021/04/30 00:03:42;;;;;;;36.95;23.77;;;6.90;99.90;;;;;;5089913;28;20012;-79
2021/04/30 00:06:07;;;;;;;32.70;21.27;;;6.90;99.90;;;;;;5090654;28;20012;-78
2021/04/30 00:08:33;;;;;;;30.60;20.98;;;6.90;99.90;;;;;;5091379;28;20016;-78
2021/04/30 00:10:58;;;;;;;31.02;20.85;;;6.90;99.90;;;;;;5089551;28;20012;-78
2021/04/30 00:13:24;;;;;;;38.03;22.98;;;6.90;99.90;;;;;;5090907;28;20472;-79
2021/04/30 00:15:50;;;;;;;31.73;20.20;;;6.90;99.90;;;;;;5089671;28;20115;-79
2021/04/30 00:18:15;;;;;;;33.60;20.67;;;7.00;99.90;;;;;;5089009;28;20024;-78
2021/04/30 00:20:51;;;;;;;34.20;20.52;;;7.00;99.90;;;;;;5089229;28;20057;-79
2021/04/30 00:23:17;;;;;;;26.27;19.15;;;7.00;99.90;;;;;;5047587;28;20467;-78
2021/04/30 00:25:42;;;;;;;32.50;21.48;;;7.00;99.90;;;;;;5052950;28;20031;-77
2021/04/30 00:28:08;;;;;;;34.80;21.50;;;7.00;99.90;;;;;;5070298;28;20125;-78
2021/04/30 00:30:34;;;;;;;31.33;20.25;;;6.90;99.90;;;;;;5053717;28;20020;-78
2021/04/30 00:33:00;;;;;;;33.33;20.42;;;6.90;99.90;;;;;;5053806;28;20107;-79
2021/04/30 00:35:26;;;;;;;30.10;20.60;;;6.90;99.90;;;;;;5051923;28;20059;-78
2021/04/30 00:37:52;;;;;;;34.85;19.30;;;7.00;99.90;;;;;;5049601;28;20055;-78
2021/04/30 00:40:17;;;;;;;31.35;18.83;;;7.00;99.90;;;;;;5070008;28;20024;-78
2021/04/30 00:42:43;;;;;;;33.35;19.85;;;7.00;99.90;;;;;;5053956;28;20028;-78
2021/04/30 00:45:15;;;;;;;31.52;20.02;;;7.00;99.90;;;;;;5049469;28;20024;-78
2021/04/30 00:47:41;;;;;;;33.60;18.75;;;7.00;99.90;;;;;;5048039;28;20028;-79
2021/04/30 00:50:09;;;;;;;34.17;19.77;;;7.00;99.90;;;;;;5069333;28;20021;-78
2021/04/30 00:52:38;;;;;;;30.17;19.00;;;7.00;99.90;;;;;;5052476;28;20078;-78
2021/04/30 00:55:06;;;;;;;31.85;18.50;;;7.00;99.90;;;;;;5052798;28;20476;-78
2021/04/30 00:57:32;;;;;;;31.92;18.15;;;7.10;99.90;;;;;;5019997;28;20039;-78
2021/04/30 00:59:59;;;;;;;38.70;19.02;;;7.00;99.90;;;;;;5054085;28;20055;-79
2021/04/30 01:02:25;;;;;;;38.25;18.02;;;7.00;99.90;;;;;;5066880;28;20526;-78
2021/04/30 01:04:50;;;;;;;33.05;18.33;;;7.00;99.90;;;;;;5070186;28;20060;-79
2021/04/30 01:07:16;;;;;;;30.25;17.42;;;7.00;99.90;;;;;;5050723;28;20051;-78
2021/04/30 01:09:41;;;;;;;35.05;18.40;;;7.00;99.90;;;;;;5070600;28;20029;-78
2021/04/30 01:12:09;;;;;;;34.80;18.13;;;7.00;99.90;;;;;;5070713;28;20028;-78
2021/04/30 01:14:35;;;;;;;34.35;19.10;;;7.10;99.90;;;;;;5053070;28;20025;-78
2021/04/30 01:17:01;;;;;;;33.45;19.20;;;7.00;99.90;;;;;;5070121;28;20487;-78
2021/04/30 01:19:29;;;;;;;27.30;16.63;;;7.00;99.90;;;;;;5066504;28;20468;-78
2021/04/30 01:21:56;;;;;;;21.98;15.00;;;7.10;99.90;;;;;;5069473;28;20055;-79
2021/04/30 01:24:23;;;;;;;32.47;17.70;;;7.10;99.90;;;;;;5050326;28;20022;-78
2021/04/30 01:26:48;;;;;;;30.17;16.58;;;7.10;99.90;;;;;;5070668;28;20035;-78
2021/04/30 01:29:14;;;;;;;25.60;16.48;;;7.10;99.90;;;;;;5051679;28;20016;-79
2021/04/30 01:31:41;;;;;;;27.23;15.38;;;7.20;99.90;;;;;;5053306;28;20369;-78
2021/04/30 01:34:06;;;;;;;25.23;16.38;;;7.20;99.90;;;;;;5053532;28;20129;-79
2021/04/30 01:36:32;;;;;;;25.90;14.52;;;7.20;99.90;;;;;;5066321;28;20476;-78
2021/04/30 01:38:59;;;;;;;26.92;15.88;;;7.20;99.90;;;;;;5069522;28;20027;-79
2021/04/30 01:41:25;;;;;;;26.15;16.75;;;7.30;99.90;;;;;;5069216;28;20057;-78
2021/04/30 01:43:51;;;;;;;29.50;15.75;;;7.30;99.90;;;;;;5071096;28;20433;-79
2021/04/30 01:46:17;;;;;;;22.75;13.13;;;7.30;99.90;;;;;;5051407;28;20468;-79
2021/04/30 01:48:43;;;;;;;29.63;15.32;;;7.30;99.90;;;;;;5049301;28;20060;-79
2021/04/30 01:51:08;;;;;;;23.63;15.95;;;7.30;99.90;;;;;;5070039;28;20052;-79
2021/04/30 01:53:36;;;;;;;27.98;14.82;;;7.30;99.90;;;;;;5050917;28;20063;-79
2021/04/30 01:56:09;;;;;;;25.73;15.40;;;7.30;99.90;;;;;;5052632;28;20027;-79
2021/04/30 01:58:36;;;;;;;26.60;13.80;;;7.40;99.90;;;;;;5070420;28;20020;-79
2021/04/30 02:01:03;;;;;;;31.13;16.08;;;7.40;99.90;;;;;;5053357;28;20017;-79
2021/04/30 02:03:28;;;;;;;27.85;14.65;;;7.40;99.90;;;;;;5051050;28;20078;-79
2021/04/30 02:05:54;;;;;;;23.92;13.57;;;7.30;99.90;;;;;;5048948;28;20016;-79
2021/04/30 02:08:20;;;;;;;26.75;13.88;;;7.30;99.90;;;;;;5073548;28;20082;-79
2021/04/30 02:10:46;;;;;;;28.48;13.32;;;7.40;99.90;;;;;;5072376;28;20036;-79
2021/04/30 02:13:12;;;;;;;25.77;12.60;;;7.40;99.90;;;;;;5074326;28;20020;-79
2021/04/30 02:15:41;;;;;;;23.85;12.63;;;7.40;99.90;;;;;;5072344;28;20020;-80
2021/04/30 02:18:07;;;;;;;25.77;13.43;;;7.40;99.90;;;;;;5074928;28;20036;-79
2021/04/30 02:20:33;;;;;;;21.08;12.05;;;7.40;99.90;;;;;;5054448;28;20033;-79
2021/04/30 02:23:00;;;;;;;18.10;11.90;;;7.40;99.90;;;;;;5087916;28;20381;-79
2021/04/30 02:25:26;;;;;;;22.50;11.95;;;7.40;99.90;;;;;;5093513;28;20038;-78
2021/04/30 02:27:54;;;;;;;24.48;12.48;;;7.40;99.90;;;;;;5091226;28;20032;-79
2021/04/30 02:30:21;;;;;;;34.53;12.90;;;7.40;99.90;;;;;;5087735;28;20391;-79
2021/04/30 02:32:48;;;;;;;26.17;12.43;;;7.40;99.90;;;;;;5092720;28;20081;-79
2021/04/30 02:35:21;;;;;;;21.75;10.60;;;7.40;99.90;;;;;;5094857;28;20028;-79
2021/04/30 02:37:47;;;;;;;20.60;11.45;;;7.40;99.90;;;;;;5090786;28;20495;-79
2021/04/30 02:40:15;;;;;;;19.90;11.75;;;7.40;99.90;;;;;;5090287;28;20035;-79
2021/04/30 02:42:41;;;;;;;20.27;11.23;;;7.40;99.90;;;;;;5094496;28;20020;-79
2021/04/30 02:45:09;;;;;;;23.48;12.25;;;7.50;99.90;;;;;;5091282;28;20020;-79
2021/04/30 02:47:35;;;;;;;23.83;11.80;;;7.40;99.90;;;;;;5091967;28;20020;-79
2021/04/30 02:50:03;;;;;;;21.95;11.60;;;7.40;99.90;;;;;;5091214;28;20027;-79
2021/04/30 02:52:29;;;;;;;15.40;9.70;;;7.50;99.90;;;;;;5090338;28;20426;-79
2021/04/30 02:54:55;;;;;;;25.65;12.75;;;7.50;99.90;;;;;;5093208;28;20016;-79
2021/04/30 02:57:21;;;;;;;25.90;12.32;;;7.50;99.90;;;;;;5092315;28;20024;-79
2021/04/30 02:59:47;;;;;;;20.75;11.50;;;7.50;99.90;;;;;;5092885;28;20048;-79
2021/04/30 03:02:13;;;;;;;22.85;12.50;;;7.50;99.90;;;;;;5090239;28;20024;-79
2021/04/30 03:04:39;;;;;;;16.05;10.38;;;7.50;99.90;;;;;;5087041;28;20103;-78
2021/04/30 03:07:05;;;;;;;20.98;12.57;;;7.50;99.90;;;;;;5091543;28;20020;-79
2021/04/30 03:09:31;;;;;;;22.33;11.93;;;7.50;99.90;;;;;;5090707;28;20034;-79
2021/04/30 03:11:56;;;;;;;20.67;11.60;;;7.50;99.90;;;;;;5092796;28;20033;-79
2021/04/30 03:14:22;;;;;;;24.63;12.25;;;7.50;99.90;;;;;;5091264;28;20020;-79
2021/04/30 03:16:47;;;;;;;19.83;11.27;;;7.50;99.90;;;;;;5091659;28;20467;-79
2021/04/30 03:19:13;;;;;;;19.33;11.57;;;7.50;99.90;;;;;;5089887;28;20032;-79
2021/04/30 03:21:39;;;;;;;23.08;11.07;;;7.50;99.90;;;;;;5090294;28;20101;-80
2021/04/30 03:24:06;;;;;;;19.98;11.40;;;7.50;99.90;;;;;;5089656;28;20066;-79
2021/04/30 03:26:32;;;;;;;20.48;11.30;;;7.50;99.90;;;;;;5091471;28;20383;-79
2021/04/30 03:28:58;;;;;;;21.95;11.30;;;7.50;99.90;;;;;;5092803;28;20024;-79
2021/04/30 03:31:23;;;;;;;27.75;11.55;;;7.50;99.90;;;;;;5090678;28;20027;-79
2021/04/30 03:33:49;;;;;;;27.10;12.73;;;7.50;99.90;;;;;;5092132;28;20134;-79
2021/04/30 03:36:14;;;;;;;24.63;12.77;;;7.50;99.90;;;;;;5090666;28;20465;-80
2021/04/30 03:38:40;;;;;;;28.10;11.98;;;7.40;99.90;;;;;;5090110;28;20016;-79
2021/04/30 03:41:05;;;;;;;27.70;11.15;;;7.50;99.90;;;;;;5090563;28;20020;-79
2021/04/30 03:43:31;;;;;;;22.95;11.15;;;7.50;99.90;;;;;;5091731;28;20048;-79
2021/04/30 03:45:58;;;;;;;16.75;10.80;;;7.50;99.90;;;;;;5089463;28;20065;-79
2021/04/30 03:48:25;;;;;;;18.63;10.52;;;7.50;99.90;;;;;;5090058;28;20016;-79
2021/04/30 03:50:51;;;;;;;18.48;10.70;;;7.50;99.90;;;;;;5089259;28;20034;-79
2021/04/30 03:53:16;;;;;;;20.05;10.93;;;7.50;99.90;;;;;;5090549;28;20118;-80
2021/04/30 03:55:42;;;;;;;27.15;11.75;;;7.50;99.90;;;;;;5090893;28;20531;-79
2021/04/30 03:58:08;;;;;;;23.95;13.05;;;7.50;99.90;;;;;;5091300;28;20034;-80
2021/04/30 04:00:33;;;;;;;20.88;11.68;;;7.50;99.90;;;;;;5090995;28;20024;-80
2021/04/30 04:02:59;;;;;;;20.88;10.98;;;7.50;99.90;;;;;;5090375;28;20040;-80
2021/04/30 04:05:24;;;;;;;21.33;11.38;;;7.50;99.90;;;;;;5089721;28;20031;-79
2021/04/30 04:07:50;;;;;;;21.45;11.98;;;7.50;99.90;;;;;;5088936;28;20024;-80
2021/04/30 04:10:15;;;;;;;19.25;11.32;;;7.50;99.90;;;;;;5089954;28;20027;-80
2021/04/30 04:12:41;;;;;;;18.00;11.52;;;7.50;99.90;;;;;;5089344;28;20032;-79
2021/04/30 04:15:08;;;;;;;20.33;13.05;;;7.50;99.90;;;;;;5090209;28;20396;-79
2021/04/30 04:17:34;;;;;;;20.98;12.70;;;7.50;99.90;;;;;;5090048;28;20480;-79
2021/04/30 04:20:00;;;;;;;15.18;10.82;;;7.60;99.90;;;;;;5088857;28;20543;-79
2021/04/30 04:22:26;;;;;;;21.55;13.02;;;7.60;99.90;;;;;;5074195;28;20120;-80
2021/04/30 04:24:52;;;;;;;23.88;13.45;;;7.60;99.90;;;;;;5069660;28;20150;-79
2021/04/30 04:27:18;;;;;;;18.50;11.40;;;7.60;99.90;;;;;;5053273;28;20020;-80
2021/04/30 04:29:44;;;;;;;18.00;11.00;;;7.60;99.90;;;;;;5051631;28;20545;-79
2021/04/30 04:32:10;;;;;;;20.92;12.52;;;7.60;99.90;;;;;;5050985;28;20025;-79
2021/04/30 04:34:36;;;;;;;34.00;13.77;;;7.60;99.90;;;;;;5071490;28;20024;-80
2021/04/30 04:37:01;;;;;;;22.08;12.90;;;7.60;99.90;;;;;;5051649;28;20027;-80
2021/04/30 04:39:29;;;;;;;24.40;14.70;;;7.60;99.90;;;;;;5050415;28;20477;-80
2021/04/30 04:41:55;;;;;;;23.30;12.82;;;7.60;99.90;;;;;;5070023;28;20016;-79
2021/04/30 04:44:21;;;;;;;29.00;13.80;;;7.60;99.90;;;;;;5054025;28;20023;-79
2021/04/30 04:46:46;;;;;;;25.05;14.43;;;7.60;99.90;;;;;;5067851;28;20032;-79
2021/04/30 04:49:12;;;;;;;25.27;14.95;;;7.60;99.90;;;;;;5051131;28;20131;-79
2021/04/30 04:51:38;;;;;;;19.00;12.98;;;7.70;99.90;;;;;;5052218;28;20020;-80
2021/04/30 04:54:06;;;;;;;23.50;14.40;;;7.70;99.90;;;;;;5051026;28;20518;-79
2021/04/30 04:56:31;;;;;;;19.67;13.20;;;7.70;99.90;;;;;;5071021;28;20024;-79
2021/04/30 04:58:58;;;;;;;20.63;14.32;;;7.80;99.90;;;;;;5070587;28;20028;-80
2021/04/30 05:01:23;;;;;;;23.00;15.27;;;7.80;99.90;;;;;;5053829;28;20070;-79
2021/04/30 05:03:49;;;;;;;24.00;15.25;;;7.80;99.90;;;;;;5051986;28;20388;-79
2021/04/30 05:06:15;;;;;;;21.67;14.02;;;7.80;99.90;;;;;;5069256;28;20100;-79
2021/04/30 05:08:41;;;;;;;28.95;13.70;;;7.80;99.90;;;;;;5069965;28;20111;-80
2021/04/30 05:11:06;;;;;;;22.90;13.80;;;7.80;99.90;;;;;;5049210;28;20464;-80
2021/04/30 05:13:33;;;;;;;24.17;16.05;;;7.80;99.90;;;;;;5052922;28;20028;-80
2021/04/30 05:16:02;;;;;;;30.23;18.17;;;7.80;99.90;;;;;;5050590;28;20472;-80
2021/04/30 05:18:30;;;;;;;27.48;14.70;;;7.80;99.90;;;;;;5071446;28;20024;-80
2021/04/30 05:20:56;;;;;;;26.20;16.42;;;7.80;99.90;;;;;;5050943;28;20087;-80
2021/04/30 05:23:22;;;;;;;20.65;14.85;;;7.80;99.90;;;;;;5051586;28;20021;-80
2021/04/30 05:25:51;;;;;;;23.20;14.90;;;7.80;99.90;;;;;;5068991;28;20021;-80
2021/04/30 05:28:17;;;;;;;27.05;15.90;;;7.80;99.90;;;;;;5072257;28;20105;-79
2021/04/30 05:30:42;;;;;;;25.65;16.33;;;7.90;99.90;;;;;;5057653;28;20064;-79
2021/04/30 05:33:08;;;;;;;24.95;16.13;;;7.90;99.90;;;;;;5051523;28;20541;-80
2021/04/30 05:35:34;;;;;;;22.92;14.50;;;7.90;99.90;;;;;;5016437;28;20135;-79
2021/04/30 05:38:00;;;;;;;20.50;14.50;;;8.00;99.90;;;;;;5014172;28;20092;-79
2021/04/30 05:40:26;;;;;;;23.90;17.65;;;8.00;99.90;;;;;;5032736;28;20022;-79
2021/04/30 05:42:52;;;;;;;24.35;15.30;;;8.00;99.90;;;;;;5036656;28;20036;-79
2021/04/30 05:45:18;;;;;;;23.60;15.52;;;8.00;99.90;;;;;;5036630;28;20022;-79
2021/04/30 05:47:44;;;;;;;23.85;17.70;;;8.00;99.90;;;;;;5036614;28;20033;-80
2021/04/30 05:50:10;;;;;;;35.15;21.80;;;8.00;99.90;;;;;;5026537;28;20040;-80
2021/04/30 05:52:36;;;;;;;37.00;21.58;;;8.00;99.90;;;;;;5046107;28;20021;-80
2021/04/30 05:55:03;;;;;;;27.88;19.92;;;7.90;99.90;;;;;;5038356;28;20029;-80
2021/04/30 05:57:28;;;;;;;25.42;21.23;;;7.90;99.90;;;;;;5056300;28;20025;-80
2021/04/30 05:59:54;;;;;;;29.80;20.23;;;7.90;99.90;;;;;;5038253;28;20387;-80
2021/04/30 06:02:19;;;;;;;29.92;20.85;;;7.90;99.90;;;;;;5038397;28;20074;-79
2021/04/30 06:04:45;;;;;;;23.98;18.70;;;7.90;99.90;;;;;;5038182;28;20028;-80
2021/04/30 06:07:11;;;;;;;28.65;18.52;;;7.90;99.90;;;;;;5038288;28;20021;-80
2021/04/30 06:09:36;;;;;;;28.15;18.90;;;8.00;99.90;;;;;;5038248;28;20025;-80
2021/04/30 06:12:02;;;;;;;30.85;20.98;;;8.00;99.90;;;;;;5034676;28;20116;-80
2021/04/30 06:14:30;;;;;;;35.83;21.65;;;8.00;99.90;;;;;;5034696;28;20175;-80
2021/04/30 06:16:57;;;;;;;32.40;20.55;;;8.00;99.90;;;;;;5022171;28;20044;-80
2021/04/30 06:19:22;;;;;;;31.40;22.08;;;8.00;99.90;;;;;;5018083;28;20026;-81
2021/04/30 06:21:48;;;;;;;26.88;21.00;;;8.00;99.90;;;;;;5035658;28;20115;-81
2021/04/30 06:24:14;;;;;;;28.15;20.48;;;8.00;99.90;;;;;;5018234;28;20033;-81
2021/04/30 06:26:39;;;;;;;33.45;20.88;;;7.90;99.90;;;;;;5035932;28;20481;-81
2021/04/30 06:29:05;;;;;;;33.20;21.30;;;8.00;99.90;;;;;;5018146;28;20481;-81
2021/04/30 06:31:31;;;;;;;33.13;21.48;;;8.00;99.90;;;;;;5018031;28;20022;-81
2021/04/30 06:33:56;;;;;;;27.08;19.52;;;8.00;99.90;;;;;;5017888;28;20060;-81
2021/04/30 06:36:22;;;;;;;33.17;22.63;;;8.10;99.90;;;;;;5017678;28;20492;-79
2021/04/30 06:38:47;;;;;;;31.35;21.52;;;8.10;99.90;;;;;;5035684;28;20026;-79
2021/04/30 06:41:13;;;;;;;36.20;22.10;;;8.10;99.90;;;;;;5017845;28;20022;-79
2021/04/30 06:43:39;;;;;;;39.75;23.33;;;8.20;99.90;;;;;;5017905;28;20022;-79
2021/04/30 06:46:04;;;;;;;33.03;23.30;;;8.20;99.90;;;;;;5023805;28;20538;-79
2021/04/30 06:48:30;;;;;;;38.15;23.85;;;8.20;99.90;;;;;;5037047;28;20029;-79
2021/04/30 06:50:55;;;;;;;34.28;24.80;;;8.20;99.90;;;;;;5036861;28;20353;-79
2021/04/30 06:53:21;;;;;;;36.67;24.27;;;8.20;99.90;;;;;;5054351;28;20025;-79
2021/04/30 06:55:46;;;;;;;31.45;22.10;;;8.30;99.90;;;;;;5054151;28;20108;-79
2021/04/30 06:58:12;;;;;;;33.25;22.33;;;8.40;99.90;;;;;;5036882;28;20081;-80
2021/04/30 07:00:37;;;;;;;39.58;26.40;;;8.50;99.90;;;;;;5052076;28;20017;-80
2021/04/30 07:03:03;;;;;;;40.67;25.77;;;8.60;99.90;;;;;;5036749;28;20013;-79
2021/04/30 07:05:28;;;;;;;41.92;26.63;;;8.60;99.90;;;;;;5054441;28;20079;-79
2021/04/30 07:07:57;;;;;;;44.22;27.65;;;8.60;99.90;;;;;;5036693;28;20017;-79
2021/04/30 07:10:23;;;;;;;41.35;26.73;;;8.60;99.90;;;;;;5054703;28;20028;-80
2021/04/30 07:12:49;;;;;;;42.75;26.65;;;8.50;99.90;;;;;;5036780;28;20550;-80
2021/04/30 07:15:17;;;;;;;47.83;30.48;;;8.60;99.90;;;;;;5036958;28;20119;-79
2021/04/30 07:17:43;;;;;;;43.03;30.60;;;8.60;99.90;;;;;;5036931;28;20025;-79
2021/04/30 07:20:09;;;;;;;48.53;30.42;;;8.50;99.90;;;;;;5054870;28;20414;-79
2021/04/30 07:22:34;;;;;;;51.25;32.92;;;8.50;99.90;;;;;;5064757;28;20044;-80
2021/04/30 07:25:00;;;;;;;47.03;31.70;;;8.50;99.90;;;;;;5074690;28;20542;-80
2021/04/30 07:27:25;;;;;;;44.97;31.63;;;8.40;99.90;;;;;;5068787;28;20024;-79
2021/04/30 07:29:51;;;;;;;45.85;30.08;;;8.40;99.90;;;;;;5050700;28;20480;-80
2021/04/30 07:32:17;;;;;;;45.25;31.17;;;8.50;99.90;;;;;;5061926;28;20025;-79
2021/04/30 07:34:42;;;;;;;34.83;26.00;;;8.50;99.90;;;;;;5058699;28;20324;-79
2021/04/30 07:37:08;;;;;;;49.67;33.50;;;8.60;99.90;;;;;;5053585;28;20491;-79
2021/04/30 07:39:34;;;;;;;50.35;30.95;;;8.60;99.90;;;;;;5061149;28;20473;-79
2021/04/30 07:41:59;;;;;;;46.17;33.40;;;8.70;99.90;;;;;;5058196;28;20485;-79
2021/04/30 07:44:25;;;;;;;41.25;31.92;;;8.70;99.90;;;;;;5055386;28;20021;-80
2021/04/30 07:46:51;;;;;;;44.20;32.88;;;8.70;99.90;;;;;;5062133;28;20498;-80
2021/04/30 07:49:16;;;;;;;43.70;30.48;;;8.70;99.90;;;;;;5070607;28;20494;-80
2021/04/30 07:51:42;;;;;;;37.35;27.40;;;8.80;99.90;;;;;;5072753;28;20054;-80
2021/04/30 07:54:07;;;;;;;39.47;27.15;;;8.80;99.90;;;;;;5072770;28;20032;-80
2021/04/30 07:56:33;;;;;;;38.33;27.90;;;8.90;99.90;;;;;;5047425;28;20515;-80
2021/04/30 07:58:58;;;;;;;35.00;25.90;;;9.00;99.90;;;;;;5028500;28;20024;-80
2021/04/30 08:01:24;;;;;;;35.67;25.50;;;9.00;99.90;;;;;;5047288;28;20059;-80
2021/04/30 08:03:49;;;;;;;42.60;27.15;;;9.10;99.90;;;;;;5051799;28;20472;-81
2021/04/30 08:06:15;;;;;;;36.22;27.48;;;9.20;99.90;;;;;;5052660;28;20021;-80
2021/04/30 08:08:40;;;;;;;35.13;26.50;;;9.20;99.90;;;;;;5052621;28;20021;-80
2021/04/30 08:11:09;;;;;;;34.63;24.75;;;9.30;99.90;;;;;;5053861;28;20029;-80
2021/04/30 08:13:35;;;;;;;35.58;26.70;;;9.30;99.90;;;;;;5053993;28;20022;-80
2021/04/30 08:16:04;;;;;;;33.30;25.83;;;9.40;99.90;;;;;;5054370;28;20029;-80
2021/04/30 08:18:30;;;;;;;33.08;27.20;;;9.50;99.90;;;;;;5054068;28;20078;-80
2021/04/30 08:20:56;;;;;;;33.00;23.90;;;9.50;99.90;;;;;;5048521;28;20021;-80
2021/04/30 08:23:21;;;;;;;30.45;22.88;;;9.50;99.90;;;;;;5015719;28;20489;-80
2021/04/30 08:25:47;;;;;;;31.63;22.05;;;9.50;99.90;;;;;;5015820;28;20056;-80
2021/04/30 08:28:13;;;;;;;30.42;24.17;;;9.60;99.90;;;;;;5015966;28;20029;-80
2021/04/30 08:30:38;;;;;;;30.65;22.98;;;9.60;99.90;;;;;;5015655;28;20052;-80
2021/04/30 08:33:04;;;;;;;25.05;20.17;;;9.70;99.90;;;;;;5012586;28;20021;-80
2021/04/30 08:35:30;;;;;;;28.25;22.70;;;9.80;99.90;;;;;;5015702;28;20037;-80
2021/04/30 08:37:56;;;;;;;27.63;21.33;;;9.80;99.90;;;;;;5015536;28;20116;-80
2021/04/30 08:40:21;;;;;;;30.25;20.77;;;9.80;99.90;;;;;;5015793;28;20496;-80
2021/04/30 08:42:50;;;;;;;31.33;21.38;;;9.90;99.90;;;;;;5015488;28;20032;-80
2021/04/30 08:45:16;;;;;;;29.13;21.35;;;9.80;99.90;;;;;;5033267;28;20017;-80
2021/04/30 08:47:44;;;;;;;29.02;22.10;;;9.90;99.90;;;;;;5015473;28;20516;-81
2021/04/30 08:50:11;;;;;;;28.05;23.35;;;9.90;99.90;;;;;;5015557;28;20476;-81
2021/04/30 08:52:37;;;;;;;28.92;23.05;;;9.90;99.90;;;;;;5015234;28;20029;-81
2021/04/30 08:55:10;;;;;;;27.27;21.77;;;10.00;99.90;;;;;;5015511;28;20116;-80
2021/04/30 08:57:37;;;;;;;29.50;23.70;;;10.00;99.90;;;;;;5032651;28;20025;-80
2021/04/30 09:00:05;;;;;;;30.30;24.60;;;10.00;99.90;;;;;;5032857;28;20017;-80
2021/04/30 09:02:33;;;;;;;26.30;21.50;;;10.00;99.90;;;;;;5043470;28;20032;-80
2021/04/30 09:04:59;;;;;;;28.95;23.20;;;10.00;99.90;;;;;;5031254;28;20409;-80
2021/04/30 09:07:26;;;;;;;30.00;23.10;;;10.00;99.90;;;;;;5042778;28;20362;-80
2021/04/30 09:10:02;;;;;;;28.65;23.98;;;10.00;99.90;;;;;;5013055;28;20033;-80
2021/04/30 09:12:28;;;;;;;26.38;22.25;;;10.00;99.90;;;;;;4990664;28;20543;-80
2021/04/30 09:14:54;;;;;;;24.52;21.30;;;10.00;99.90;;;;;;5007880;28;20025;-80
2021/04/30 09:17:20;;;;;;;31.95;22.95;;;10.00;99.90;;;;;;5030970;28;20030;-80
2021/04/30 09:19:52;;;;;;;27.80;22.77;;;10.00;99.90;;;;;;5032377;28;20045;-80
2021/04/30 09:22:19;;;;;;;29.95;23.02;;;10.20;99.90;;;;;;5031859;28;20041;-80
2021/04/30 09:24:59;;;;;;;26.40;20.30;;;10.20;99.90;;;;;;5032121;28;20396;-81
2021/04/30 09:27:38;;;;;;;29.55;25.10;;;10.20;99.90;;;;;;5031479;28;20026;-81
2021/04/30 09:30:30;;;;;;;29.40;21.83;;;10.10;99.90;;;;;;5032968;28;20079;-81
2021/04/30 09:33:07;;;;;;;24.85;21.60;;;10.10;99.90;;;;;;5043116;28;20052;-80
2021/04/30 09:35:52;;;;;;;24.98;20.95;;;10.10;99.90;;;;;;5033589;28;20029;-81
2021/04/30 09:38:19;;;;;;;25.58;19.73;;;10.10;99.90;;;;;;5024308;28;20022;-81
2021/04/30 09:40:46;;;;;;;25.55;19.63;;;10.00;99.90;;;;;;5032663;28;20033;-81
2021/04/30 09:43:13;;;;;;;21.85;17.42;;;9.90;99.90;;;;;;5031380;28;20064;-81
2021/04/30 09:45:39;;;;;;;19.92;15.02;;;9.90;99.90;;;;;;5031729;28;20041;-81
2021/04/30 09:48:06;;;;;;;15.25;11.43;;;9.80;99.90;;;;;;5032338;28;20480;-81
2021/04/30 09:50:33;;;;;;;12.80;10.93;;;9.80;99.90;;;;;;5031218;28;20030;-81
2021/04/30 09:53:02;;;;;;;13.18;10.02;;;9.80;99.90;;;;;;5032552;28;20474;-80
2021/04/30 09:56:01;;;;;;;11.50;10.30;;;9.80;99.90;;;;;;5031370;28;20030;-81
2021/04/30 09:58:28;;;;;;;12.38;10.20;;;9.90;99.90;;;;;;5016447;28;20044;-80
2021/04/30 10:00:57;;;;;;;12.45;10.15;;;10.00;99.90;;;;;;5031158;28;20485;-82
2021/04/30 10:03:25;;;;;;;12.57;10.88;;;10.00;99.90;;;;;;5032420;28;20022;-82
2021/04/30 10:06:11;;;;;;;20.65;16.02;;;10.20;99.90;;;;;;5035088;28;20029;-82
2021/04/30 10:08:37;;;;;;;18.05;15.80;;;10.20;99.90;;;;;;5034429;28;20490;-82
2021/04/30 10:11:03;;;;;;;24.08;20.42;;;10.30;99.90;;;;;;5030818;28;20104;-82
2021/04/30 10:13:30;;;;;;;22.95;19.42;;;10.30;99.90;;;;;;5031616;28;20026;-82
2021/04/30 10:15:55;;;;;;;25.83;19.27;;;10.40;99.90;;;;;;5033489;28;20184;-81
2021/04/30 10:18:21;;;;;;;30.27;20.77;;;10.40;99.90;;;;;;5031126;28;20075;-82
2021/04/30 10:20:47;;;;;;;25.33;17.40;;;10.50;99.90;;;;;;5038183;28;20022;-82
2021/04/30 10:23:19;;;;;;;25.45;18.38;;;10.70;99.90;;;;;;5072069;28;20028;-82
2021/04/30 10:25:51;;;;;;;21.45;16.40;;;10.80;99.90;;;;;;5071955;28;20468;-81
2021/04/30 10:28:29;;;;;;;21.95;15.95;;;10.90;99.90;;;;;;5056310;28;20032;-82
2021/04/30 10:30:55;;;;;;;22.73;15.60;;;11.00;99.90;;;;;;5056875;28;20062;-82
2021/04/30 10:33:43;;;;;;;21.23;15.30;;;11.00;99.90;;;;;;5057092;28;20159;-82
2021/04/30 10:36:22;;;;;;;25.90;14.75;;;11.20;99.90;;;;;;5054807;28;20468;-81
2021/04/30 10:38:55;;;;;;;20.00;13.52;;;11.80;99.90;;;;;;5054622;28;20029;-81
2021/04/30 10:41:33;;;;;;;15.35;11.65;;;12.10;99.90;;;;;;5074878;28;20037;-83
2021/04/30 10:44:24;;;;;;;16.10;12.02;;;12.40;99.90;;;;;;5056818;28;20027;-81
2021/04/30 10:47:14;;;;;;;16.83;11.40;;;12.40;99.20;;;;;;5062466;28;20045;-82
2021/04/30 10:49:40;;;;;;;21.75;12.88;;;12.40;99.30;;;;;;5074038;28;20024;-82
2021/04/30 10:52:06;;;;;;;21.85;12.63;;;12.30;98.90;;;;;;5071530;28;20024;-82
2021/04/30 10:54:34;;;;;;;17.83;11.88;;;12.10;98.40;;;;;;5074477;28;20017;-81
2021/04/30 10:57:08;;;;;;;14.63;10.20;;;12.20;98.30;;;;;;5056604;28;20115;-82
2021/04/30 10:59:36;;;;;;;13.90;9.43;;;12.20;98.00;;;;;;5057118;28;20032;-82
2021/04/30 11:02:24;;;;;;;12.57;9.60;;;12.20;98.20;;;;;;5045993;28;20025;-82
2021/04/30 11:05:09;;;;;;;12.90;9.25;;;12.50;98.20;;;;;;5036967;28;20108;-82
2021/04/30 11:07:36;;;;;;;15.82;11.32;;;12.50;97.90;;;;;;5037146;28;20440;-82
2021/04/30 11:10:20;;;;;;;13.10;9.45;;;12.30;97.40;;;;;;5037083;28;20025;-82
2021/04/30 11:12:57;;;;;;;11.90;8.60;;;12.20;97.30;;;;;;5054779;28;20039;-81
2021/04/30 11:15:25;;;;;;;10.75;8.27;;;12.20;97.60;;;;;;5042116;28;20035;-82
2021/04/30 11:17:59;;;;;;;12.75;8.35;;;12.20;97.80;;;;;;5055435;28;20036;-82
2021/04/30 11:20:28;;;;;;;11.68;9.68;;;12.40;97.90;;;;;;5054068;28;20016;-82
2021/04/30 11:23:23;;;;;;;16.35;9.57;;;12.40;97.20;;;;;;5088859;28;20519;-82
2021/04/30 11:25:58;;;;;;;10.68;9.15;;;12.50;97.10;;;;;;5063032;28;20041;-82
2021/04/30 11:28:24;;;;;;;8.73;7.82;;;12.60;96.10;;;;;;5063915;28;20023;-81
2021/04/30 11:31:35;;;;;;;9.68;7.78;;;12.70;96.40;;;;;;5062950;28;20025;-82
2021/04/30 11:34:15;;;;;;;11.10;9.73;;;12.90;95.90;;;;;;5059128;28;20036;-82
2021/04/30 11:36:48;;;;;;;15.43;10.57;;;13.10;95.30;;;;;;5063601;28;20028;-82
2021/04/30 11:39:20;;;;;;;12.85;9.80;;;13.20;94.80;;;;;;5064530;28;20017;-82
2021/04/30 11:41:47;;;;;;;9.55;8.10;;;13.40;94.40;;;;;;5063228;28;20029;-82
2021/04/30 11:44:16;;;;;;;8.32;7.07;;;13.60;94.10;;;;;;5070224;28;20109;-82
2021/04/30 11:46:42;;;;;;;10.18;9.07;;;13.80;94.10;;;;;;5063769;28;20112;-82
2021/04/30 11:49:07;;;;;;;9.93;8.90;;;13.80;93.40;;;;;;5070094;28;20158;-81
2021/04/30 11:51:44;;;;;;;11.93;9.80;;;13.70;92.90;;;;;;5072937;28;20024;-83
2021/04/30 11:54:09;;;;;;;8.98;8.00;;;13.50;92.40;;;;;;5072764;28;20030;-82
2021/04/30 11:56:36;;;;;;;7.15;6.35;;;13.80;93.20;;;;;;5072932;28;20021;-82
2021/04/30 11:59:02;;;;;;;8.02;6.95;;;14.00;93.20;;;;;;5072570;28;20029;-82
2021/04/30 12:01:29;;;;;;;8.25;7.38;;;14.20;93.20;;;;;;5072725;28;20458;-82
2021/04/30 12:03:56;;;;;;;11.35;9.20;;;14.20;92.50;;;;;;5072789;28;20058;-82
2021/04/30 12:06:28;;;;;;;15.90;10.20;;;13.90;92.10;;;;;;5072656;28;20016;-82
2021/04/30 12:08:56;;;;;;;11.02;9.80;;;13.70;92.40;;;;;;5073224;28;20024;-83
2021/04/30 12:11:25;;;;;;;11.68;9.95;;;13.50;92.40;;;;;;5075096;28;20086;-83
2021/04/30 12:13:57;;;;;;;13.23;10.88;;;13.40;92.90;;;;;;5074121;28;20063;-83
2021/04/30 12:16:24;;;;;;;12.10;10.85;;;13.20;92.90;;;;;;5064647;28;20425;-84
2021/04/30 12:18:56;;;;;;;12.20;10.07;;;13.20;93.00;;;;;;5036645;28;20116;-83
2021/04/30 12:21:26;;;;;;;16.38;11.80;;;13.30;93.40;;;;;;5031328;28;20110;-83
2021/04/30 12:23:52;;;;;;;12.60;10.07;;;13.70;92.80;;;;;;5052664;28;20054;-83
2021/04/30 12:26:31;;;;;;;10.57;9.35;;;13.80;92.00;;;;;;5052182;28;20075;-82
2021/04/30 12:28:58;;;;;;;15.33;12.47;;;14.00;92.10;;;;;;5052442;28;20029;-82
2021/04/30 12:31:26;;;;;;;11.30;10.05;;;14.10;91.20;;;;;;5058352;28;20472;-82
2021/04/30 12:33:54;;;;;;;14.88;11.18;;;14.10;91.40;;;;;;5060744;28;20032;-83
2021/04/30 12:36:29;;;;;;;11.95;10.23;;;14.10;91.20;;;;;;5062108;28;20032;-83
2021/04/30 12:38:56;;;;;;;14.18;12.13;;;14.10;91.10;;;;;;5064095;28;20033;-83